Terminal Aerodrome Forecast
Issued by NWS

Home | Current Version | Previous Version | Text Only | Print | Product List | Glossary On
Versions: 1 2 3 4 5 6 7 8 9 10 11 12
000
FTPA31 PHFO 292328
TAFHJH
TAF
PHJH 292328Z 3000/3024 06014G24KT P6SM FEW030 SCT045
     FM300600 06010KT P6SM VCSH FEW025 BKN045
     FM302000 07014G24KT P6SM FEW030 SCT045
      AMD NOT SKED 3004/3018=

USA.gov is the U.S. government's official web portal to all federal, state and local government web resources and services.